Mahon, Spain

11:21 PM CET on March 22, 2017 (GMT +0100)
Menorca | | Change Station

Elev 269 ft 39.87 °N, 4.23 °E | Updated 21 minutes ago

Overcast
Overcast
57 °F
Feels Like 57 °F
N
8
Wind Variable Wind from SSW

Today
High -- | Low -- °F
--% Chance of Precip.
Yesterday
High -- | Low -- °F
Precip. -- in
Pressure 29.89 in
Visibility 5.0 miles
Clouds Overcast 1000 ft
Dew Point 54 °F
Humidity 88%
Rainfall 0.00 in
Snow Depth Not available.
6:43 AM 6:57 PM
Waning Crescent, 29% visible
METAR LEMH 222200Z AUTO 21007KT 180V260 8000 OVC010/// 14/12 Q1012
Pressure 29.89 in
Visibility 5.0 miles
Clouds Overcast 1000 ft
Dew Point 54 °F
Humidity 88%
Rainfall 0.00 in
Snow Depth Not available.
6:43 AM 6:57 PM
Waning Crescent, 29% visible
METAR LEMH 222200Z AUTO 21007KT 180V260 8000 OVC010/// 14/12 Q1012

Get Severe Weather Alerts

Thanks for signing up!

Be on the lookout for a verification email in your inbox.

You'll start receiving the daily forecast at 8 AM.

×

10-Day Weather Forecast

×

Almanac

Astronomy

Mar. 22, 2017 Rise Set
Actual Time
Civil Twilight
Nautical Twilight
Astronomical Twilight
Moon
Length of Visible Light
Length of Day
Tomorrow will be .
, % of the Moon is Illuminated

Today's Extremes

Country Highs Country Lows

Community

WunderPhotos

Upload Photos

1,962,540 photos uploaded!

WunderBlog® & News

Nearby

Air Quality

  Air Quality AQ Index Pollutant
Not available.

Snow Depth

Station Depth Elevation

Earthquake Activity

City Distance Mag. Time & Date
Minimum magnitude displayed is 2.5.

Earthquake Activity

City Distance Mag. Time & Date
Minimum magnitude displayed is 2.5.

Coastal Water Temperatures

Place Temperature

Stations

Nearby Weather Stations

Station Location Temp. Windchill Dew Point Humidity Wind Precip. Elev Updated Type